sensor_id;sensor_type;location;lat;lon;timestamp;temperature;humidity
41882;DHT22;27562;47.524;12.404;2024-01-27T00:02:24;3.30;99.90
41882;DHT22;27562;47.524;12.404;2024-01-27T00:04:49;3.30;99.90
41882;DHT22;27562;47.524;12.404;2024-01-27T00:07:17;3.20;99.90
41882;DHT22;27562;47.524;12.404;2024-01-27T00:09:43;3.00;99.90
41882;DHT22;27562;47.524;12.404;2024-01-27T00:12:09;2.90;99.90
41882;DHT22;27562;47.524;12.404;2024-01-27T00:14:38;2.90;99.90
41882;DHT22;27562;47.524;12.404;2024-01-27T00:17:04;2.80;99.90
41882;DHT22;27562;47.524;12.404;2024-01-27T00:19:29;2.70;99.90
41882;DHT22;27562;47.524;12.404;2024-01-27T00:21:55;2.60;99.90
41882;DHT22;27562;47.524;12.404;2024-01-27T00:24:21;2.70;99.90
41882;DHT22;27562;47.524;12.404;2024-01-27T00:26:46;2.60;99.90
41882;DHT22;27562;47.524;12.404;2024-01-27T00:29:12;2.60;99.90
41882;DHT22;27562;47.524;12.404;2024-01-27T00:31:38;2.60;99.90
41882;DHT22;27562;47.524;12.404;2024-01-27T00:34:03;2.50;99.90
41882;DHT22;27562;47.524;12.404;2024-01-27T00:36:29;2.50;99.90
41882;DHT22;27562;47.524;12.404;2024-01-27T00:38:55;2.50;99.90
41882;DHT22;27562;47.524;12.404;2024-01-27T00:41:20;2.40;99.90
41882;DHT22;27562;47.524;12.404;2024-01-27T00:43:46;2.40;99.90
41882;DHT22;27562;47.524;12.404;2024-01-27T00:46:12;2.40;99.90
41882;DHT22;27562;47.524;12.404;2024-01-27T00:48:37;2.40;99.90
41882;DHT22;27562;47.524;12.404;2024-01-27T00:51:03;2.40;99.90
41882;DHT22;27562;47.524;12.404;2024-01-27T00:53:29;2.40;99.90
41882;DHT22;27562;47.524;12.404;2024-01-27T00:55:55;2.40;99.90
41882;DHT22;27562;47.524;12.404;2024-01-27T00:58:20;2.30;99.90
41882;DHT22;27562;47.524;12.404;2024-01-27T01:00:46;2.30;99.90
41882;DHT22;27562;47.524;12.404;2024-01-27T01:03:12;2.30;99.90
41882;DHT22;27562;47.524;12.404;2024-01-27T01:05:37;2.20;99.90
41882;DHT22;27562;47.524;12.404;2024-01-27T01:08:03;2.20;99.90
41882;DHT22;27562;47.524;12.404;2024-01-27T01:10:29;2.10;99.90
41882;DHT22;27562;47.524;12.404;2024-01-27T01:12:54;2.10;99.90
41882;DHT22;27562;47.524;12.404;2024-01-27T01:15:20;2.10;99.90
41882;DHT22;27562;47.524;12.404;2024-01-27T01:17:46;2.10;99.90
41882;DHT22;27562;47.524;12.404;2024-01-27T01:20:11;2.10;99.90
41882;DHT22;27562;47.524;12.404;2024-01-27T01:22:37;2.00;99.90
41882;DHT22;27562;47.524;12.404;2024-01-27T01:25:03;2.00;99.90
41882;DHT22;27562;47.524;12.404;2024-01-27T01:27:29;2.00;99.90
41882;DHT22;27562;47.524;12.404;2024-01-27T01:29:54;2.00;99.90
41882;DHT22;27562;47.524;12.404;2024-01-27T01:32:20;2.00;99.90
41882;DHT22;27562;47.524;12.404;2024-01-27T01:34:47;2.00;99.90
41882;DHT22;27562;47.524;12.404;2024-01-27T01:37:13;2.00;99.90
41882;DHT22;27562;47.524;12.404;2024-01-27T01:39:39;2.00;99.90
41882;DHT22;27562;47.524;12.404;2024-01-27T01:42:04;2.00;99.90
41882;DHT22;27562;47.524;12.404;2024-01-27T01:44:31;2.00;99.90
41882;DHT22;27562;47.524;12.404;2024-01-27T01:46:59;2.00;99.90
41882;DHT22;27562;47.524;12.404;2024-01-27T01:49:25;2.00;99.90
41882;DHT22;27562;47.524;12.404;2024-01-27T01:51:51;2.00;99.90
41882;DHT22;27562;47.524;12.404;2024-01-27T01:54:18;1.90;99.90
41882;DHT22;27562;47.524;12.404;2024-01-27T01:56:44;1.90;99.90
41882;DHT22;27562;47.524;12.404;2024-01-27T01:59:10;1.90;99.90
41882;DHT22;27562;47.524;12.404;2024-01-27T02:01:36;1.80;99.90
41882;DHT22;27562;47.524;12.404;2024-01-27T02:04:01;1.90;99.90
41882;DHT22;27562;47.524;12.404;2024-01-27T02:06:29;1.80;99.90
41882;DHT22;27562;47.524;12.404;2024-01-27T02:08:55;1.80;99.90
41882;DHT22;27562;47.524;12.404;2024-01-27T02:11:20;1.80;99.90
41882;DHT22;27562;47.524;12.404;2024-01-27T02:13:47;1.80;99.90
41882;DHT22;27562;47.524;12.404;2024-01-27T02:16:13;1.80;99.90
41882;DHT22;27562;47.524;12.404;2024-01-27T02:18:39;1.80;99.90
41882;DHT22;27562;47.524;12.404;2024-01-27T02:21:04;1.90;99.90
41882;DHT22;27562;47.524;12.404;2024-01-27T02:23:30;1.90;99.90
41882;DHT22;27562;47.524;12.404;2024-01-27T02:25:56;1.90;99.90
41882;DHT22;27562;47.524;12.404;2024-01-27T02:28:24;1.80;99.90
41882;DHT22;27562;47.524;12.404;2024-01-27T02:30:50;1.90;99.90
41882;DHT22;27562;47.524;12.404;2024-01-27T02:33:16;1.90;99.90
41882;DHT22;27562;47.524;12.404;2024-01-27T02:35:42;1.80;99.90
41882;DHT22;27562;47.524;12.404;2024-01-27T02:38:09;1.80;99.90
41882;DHT22;27562;47.524;12.404;2024-01-27T02:40:34;1.80;99.90
41882;DHT22;27562;47.524;12.404;2024-01-27T02:43:31;1.80;99.90
41882;DHT22;27562;47.524;12.404;2024-01-27T02:45:56;1.80;99.90
41882;DHT22;27562;47.524;12.404;2024-01-27T02:48:22;1.80;99.90
41882;DHT22;27562;47.524;12.404;2024-01-27T02:50:48;1.80;99.90
41882;DHT22;27562;47.524;12.404;2024-01-27T02:53:13;1.90;99.90
41882;DHT22;27562;47.524;12.404;2024-01-27T02:55:39;1.80;99.90
41882;DHT22;27562;47.524;12.404;2024-01-27T02:58:04;1.80;99.90
41882;DHT22;27562;47.524;12.404;2024-01-27T03:00:30;1.80;99.90
41882;DHT22;27562;47.524;12.404;2024-01-27T03:02:56;1.80;99.90
41882;DHT22;27562;47.524;12.404;2024-01-27T03:05:23;1.80;99.90
41882;DHT22;27562;47.524;12.404;2024-01-27T03:07:49;1.80;99.90
41882;DHT22;27562;47.524;12.404;2024-01-27T03:10:15;1.70;99.90
41882;DHT22;27562;47.524;12.404;2024-01-27T03:12:40;1.70;99.90
41882;DHT22;27562;47.524;12.404;2024-01-27T03:15:06;1.80;99.90
41882;DHT22;27562;47.524;12.404;2024-01-27T03:17:32;1.80;99.90
41882;DHT22;27562;47.524;12.404;2024-01-27T03:19:57;1.80;99.90
41882;DHT22;27562;47.524;12.404;2024-01-27T03:22:23;1.80;99.90
41882;DHT22;27562;47.524;12.404;2024-01-27T03:24:49;1.70;99.90
41882;DHT22;27562;47.524;12.404;2024-01-27T03:27:17;1.70;99.90
41882;DHT22;27562;47.524;12.404;2024-01-27T03:29:42;1.80;99.90
41882;DHT22;27562;47.524;12.404;2024-01-27T03:32:08;1.70;99.90
41882;DHT22;27562;47.524;12.404;2024-01-27T03:34:34;1.70;99.90
41882;DHT22;27562;47.524;12.404;2024-01-27T03:36:59;1.70;99.90
41882;DHT22;27562;47.524;12.404;2024-01-27T03:39:25;1.70;99.90
41882;DHT22;27562;47.524;12.404;2024-01-27T03:41:51;1.70;99.90
41882;DHT22;27562;47.524;12.404;2024-01-27T03:44:16;1.60;99.90
41882;DHT22;27562;47.524;12.404;2024-01-27T03:46:42;1.70;99.90
41882;DHT22;27562;47.524;12.404;2024-01-27T03:49:08;1.70;99.90
41882;DHT22;27562;47.524;12.404;2024-01-27T03:51:33;1.70;99.90
41882;DHT22;27562;47.524;12.404;2024-01-27T03:53:59;1.60;99.90
41882;DHT22;27562;47.524;12.404;2024-01-27T03:56:25;1.60;99.90
41882;DHT22;27562;47.524;12.404;2024-01-27T03:58:50;1.60;99.90
41882;DHT22;27562;47.524;12.404;2024-01-27T04:01:16;1.60;99.90
41882;DHT22;27562;47.524;12.404;2024-01-27T04:03:41;1.60;99.90
41882;DHT22;27562;47.524;12.404;2024-01-27T04:06:07;1.60;99.90
41882;DHT22;27562;47.524;12.404;2024-01-27T04:08:33;1.60;99.90
41882;DHT22;27562;47.524;12.404;2024-01-27T04:10:58;1.60;99.90
41882;DHT22;27562;47.524;12.404;2024-01-27T04:13:24;1.60;99.90
41882;DHT22;27562;47.524;12.404;2024-01-27T04:15:50;1.60;99.90
41882;DHT22;27562;47.524;12.404;2024-01-27T04:18:16;1.60;99.90
41882;DHT22;27562;47.524;12.404;2024-01-27T04:20:42;1.60;99.90
41882;DHT22;27562;47.524;12.404;2024-01-27T04:23:09;1.60;99.90
41882;DHT22;27562;47.524;12.404;2024-01-27T04:25:34;1.60;99.90
41882;DHT22;27562;47.524;12.404;2024-01-27T04:28:00;1.60;99.90
41882;DHT22;27562;47.524;12.404;2024-01-27T04:30:25;1.70;99.90
41882;DHT22;27562;47.524;12.404;2024-01-27T04:32:51;1.70;99.90
41882;DHT22;27562;47.524;12.404;2024-01-27T04:35:17;1.60;99.90
41882;DHT22;27562;47.524;12.404;2024-01-27T04:37:43;1.60;99.90
41882;DHT22;27562;47.524;12.404;2024-01-27T04:40:10;1.60;99.90
41882;DHT22;27562;47.524;12.404;2024-01-27T04:42:39;1.60;99.90
41882;DHT22;27562;47.524;12.404;2024-01-27T04:45:06;1.60;99.90
41882;DHT22;27562;47.524;12.404;2024-01-27T04:47:32;1.60;99.90
41882;DHT22;27562;47.524;12.404;2024-01-27T04:49:57;1.50;99.90
41882;DHT22;27562;47.524;12.404;2024-01-27T04:52:23;1.50;99.90
41882;DHT22;27562;47.524;12.404;2024-01-27T04:54:49;1.50;99.90
41882;DHT22;27562;47.524;12.404;2024-01-27T04:57:15;1.50;99.90
41882;DHT22;27562;47.524;12.404;2024-01-27T04:59:41;1.50;99.90
41882;DHT22;27562;47.524;12.404;2024-01-27T05:02:07;1.50;99.90
41882;DHT22;27562;47.524;12.404;2024-01-27T05:04:33;1.50;99.90
41882;DHT22;27562;47.524;12.404;2024-01-27T05:06:58;1.50;99.90
41882;DHT22;27562;47.524;12.404;2024-01-27T05:09:24;1.50;99.90
41882;DHT22;27562;47.524;12.404;2024-01-27T05:11:50;1.50;99.90
41882;DHT22;27562;47.524;12.404;2024-01-27T05:14:19;1.60;99.90
41882;DHT22;27562;47.524;12.404;2024-01-27T05:16:44;1.50;99.90
41882;DHT22;27562;47.524;12.404;2024-01-27T05:19:10;1.50;99.90
41882;DHT22;27562;47.524;12.404;2024-01-27T05:21:37;1.50;99.90
41882;DHT22;27562;47.524;12.404;2024-01-27T05:24:03;1.50;99.90
41882;DHT22;27562;47.524;12.404;2024-01-27T05:26:29;1.50;99.90
41882;DHT22;27562;47.524;12.404;2024-01-27T05:28:55;1.40;99.90
41882;DHT22;27562;47.524;12.404;2024-01-27T05:31:21;1.40;99.90
41882;DHT22;27562;47.524;12.404;2024-01-27T05:33:46;1.40;99.90
41882;DHT22;27562;47.524;12.404;2024-01-27T05:36:12;1.40;99.90
41882;DHT22;27562;47.524;12.404;2024-01-27T05:38:38;1.40;99.90
41882;DHT22;27562;47.524;12.404;2024-01-27T05:41:03;1.50;99.90
41882;DHT22;27562;47.524;12.404;2024-01-27T05:43:29;1.50;99.90
41882;DHT22;27562;47.524;12.404;2024-01-27T05:45:55;1.40;99.90
41882;DHT22;27562;47.524;12.404;2024-01-27T05:48:21;1.40;99.90
41882;DHT22;27562;47.524;12.404;2024-01-27T05:50:59;1.40;99.90
41882;DHT22;27562;47.524;12.404;2024-01-27T05:53:26;1.40;99.90
41882;DHT22;27562;47.524;12.404;2024-01-27T05:55:52;1.40;99.90
41882;DHT22;27562;47.524;12.404;2024-01-27T05:58:19;1.40;99.90
41882;DHT22;27562;47.524;12.404;2024-01-27T06:00:48;1.40;99.90
41882;DHT22;27562;47.524;12.404;2024-01-27T06:03:14;1.40;99.90
41882;DHT22;27562;47.524;12.404;2024-01-27T06:05:41;1.40;99.90
41882;DHT22;27562;47.524;12.404;2024-01-27T06:08:07;1.40;99.90
41882;DHT22;27562;47.524;12.404;2024-01-27T06:10:33;1.40;99.90
41882;DHT22;27562;47.524;12.404;2024-01-27T06:12:59;1.40;99.90
41882;DHT22;27562;47.524;12.404;2024-01-27T06:15:25;1.40;99.90
41882;DHT22;27562;47.524;12.404;2024-01-27T06:17:50;1.40;99.90
41882;DHT22;27562;47.524;12.404;2024-01-27T06:20:16;1.40;99.90
41882;DHT22;27562;47.524;12.404;2024-01-27T06:22:43;1.40;99.90
41882;DHT22;27562;47.524;12.404;2024-01-27T06:25:09;1.40;99.90
41882;DHT22;27562;47.524;12.404;2024-01-27T06:27:36;1.40;99.90
41882;DHT22;27562;47.524;12.404;2024-01-27T06:30:03;1.40;99.90
41882;DHT22;27562;47.524;12.404;2024-01-27T06:32:29;1.40;99.90
41882;DHT22;27562;47.524;12.404;2024-01-27T06:34:54;1.30;99.90
41882;DHT22;27562;47.524;12.404;2024-01-27T06:37:20;1.30;99.90
41882;DHT22;27562;47.524;12.404;2024-01-27T06:39:46;1.30;99.90
41882;DHT22;27562;47.524;12.404;2024-01-27T06:42:11;1.30;99.90
41882;DHT22;27562;47.524;12.404;2024-01-27T06:44:37;1.30;99.90
41882;DHT22;27562;47.524;12.404;2024-01-27T06:47:03;1.30;99.90
41882;DHT22;27562;47.524;12.404;2024-01-27T06:49:28;1.30;99.90
41882;DHT22;27562;47.524;12.404;2024-01-27T06:51:54;1.30;99.90
41882;DHT22;27562;47.524;12.404;2024-01-27T06:54:19;1.30;99.90
41882;DHT22;27562;47.524;12.404;2024-01-27T06:56:45;1.30;99.90
41882;DHT22;27562;47.524;12.404;2024-01-27T06:59:11;1.30;99.90
41882;DHT22;27562;47.524;12.404;2024-01-27T07:01:37;1.30;99.90
41882;DHT22;27562;47.524;12.404;2024-01-27T07:04:03;1.30;99.90
41882;DHT22;27562;47.524;12.404;2024-01-27T07:06:28;1.30;99.90
41882;DHT22;27562;47.524;12.404;2024-01-27T07:08:54;1.30;99.90
41882;DHT22;27562;47.524;12.404;2024-01-27T07:11:20;1.20;99.90
41882;DHT22;27562;47.524;12.404;2024-01-27T07:13:46;1.30;99.90
41882;DHT22;27562;47.524;12.404;2024-01-27T07:16:12;1.30;99.90
41882;DHT22;27562;47.524;12.404;2024-01-27T07:18:37;1.30;99.90
41882;DHT22;27562;47.524;12.404;2024-01-27T07:21:03;1.30;99.90
41882;DHT22;27562;47.524;12.404;2024-01-27T07:23:29;1.20;99.90
41882;DHT22;27562;47.524;12.404;2024-01-27T07:25:54;1.30;99.90
41882;DHT22;27562;47.524;12.404;2024-01-27T07:28:20;1.20;99.90
41882;DHT22;27562;47.524;12.404;2024-01-27T07:30:46;1.20;99.90
41882;DHT22;27562;47.524;12.404;2024-01-27T07:33:11;1.30;99.90
41882;DHT22;27562;47.524;12.404;2024-01-27T07:35:37;1.30;99.90
41882;DHT22;27562;47.524;12.404;2024-01-27T07:38:03;1.30;99.90
41882;DHT22;27562;47.524;12.404;2024-01-27T07:40:28;1.30;99.90
41882;DHT22;27562;47.524;12.404;2024-01-27T07:42:54;1.30;99.90
41882;DHT22;27562;47.524;12.404;2024-01-27T07:45:20;1.20;99.90
41882;DHT22;27562;47.524;12.404;2024-01-27T07:47:45;1.20;99.90
41882;DHT22;27562;47.524;12.404;2024-01-27T07:50:11;1.20;99.90
41882;DHT22;27562;47.524;12.404;2024-01-27T07:52:37;1.30;99.90
41882;DHT22;27562;47.524;12.404;2024-01-27T07:55:02;1.30;99.90
41882;DHT22;27562;47.524;12.404;2024-01-27T07:57:28;1.30;99.90
41882;DHT22;27562;47.524;12.404;2024-01-27T07:59:54;1.30;99.90
41882;DHT22;27562;47.524;12.404;2024-01-27T08:02:20;1.30;99.90
41882;DHT22;27562;47.524;12.404;2024-01-27T08:04:45;1.30;99.90
41882;DHT22;27562;47.524;12.404;2024-01-27T08:07:11;1.30;99.90
41882;DHT22;27562;47.524;12.404;2024-01-27T08:09:40;1.30;99.90
41882;DHT22;27562;47.524;12.404;2024-01-27T08:12:06;1.30;99.90
41882;DHT22;27562;47.524;12.404;2024-01-27T08:14:32;1.30;99.90
41882;DHT22;27562;47.524;12.404;2024-01-27T08:17:01;1.40;99.90
41882;DHT22;27562;47.524;12.404;2024-01-27T08:19:28;1.40;99.90
41882;DHT22;27562;47.524;12.404;2024-01-27T08:21:54;1.40;99.90
41882;DHT22;27562;47.524;12.404;2024-01-27T08:24:20;1.50;99.90
41882;DHT22;27562;47.524;12.404;2024-01-27T08:26:45;1.60;99.90
41882;DHT22;27562;47.524;12.404;2024-01-27T08:29:13;1.60;99.90
41882;DHT22;27562;47.524;12.404;2024-01-27T08:31:39;1.70;99.90
41882;DHT22;27562;47.524;12.404;2024-01-27T08:34:05;1.70;99.90
41882;DHT22;27562;47.524;12.404;2024-01-27T08:36:30;1.80;99.90
41882;DHT22;27562;47.524;12.404;2024-01-27T08:38:56;1.90;99.90
41882;DHT22;27562;47.524;12.404;2024-01-27T08:41:22;1.90;99.90
41882;DHT22;27562;47.524;12.404;2024-01-27T08:43:48;2.00;99.90
41882;DHT22;27562;47.524;12.404;2024-01-27T08:46:13;2.00;99.90
41882;DHT22;27562;47.524;12.404;2024-01-27T08:48:40;2.10;99.90
41882;DHT22;27562;47.524;12.404;2024-01-27T08:51:11;2.10;99.90
41882;DHT22;27562;47.524;12.404;2024-01-27T08:53:38;2.20;99.90
41882;DHT22;27562;47.524;12.404;2024-01-27T08:56:04;2.30;99.90
41882;DHT22;27562;47.524;12.404;2024-01-27T08:58:31;2.30;99.90
41882;DHT22;27562;47.524;12.404;2024-01-27T09:00:56;2.40;99.90
41882;DHT22;27562;47.524;12.404;2024-01-27T09:03:22;2.50;99.90
41882;DHT22;27562;47.524;12.404;2024-01-27T09:05:48;2.50;99.90
41882;DHT22;27562;47.524;12.404;2024-01-27T09:08:14;2.60;99.90
41882;DHT22;27562;47.524;12.404;2024-01-27T09:10:41;2.60;99.90
41882;DHT22;27562;47.524;12.404;2024-01-27T09:13:07;2.70;99.90
41882;DHT22;27562;47.524;12.404;2024-01-27T09:15:33;2.80;99.90
41882;DHT22;27562;47.524;12.404;2024-01-27T09:17:58;2.80;99.90
41882;DHT22;27562;47.524;12.404;2024-01-27T09:20:24;2.90;99.90
41882;DHT22;27562;47.524;12.404;2024-01-27T09:22:50;2.90;99.90
41882;DHT22;27562;47.524;12.404;2024-01-27T09:25:16;3.00;99.90
41882;DHT22;27562;47.524;12.404;2024-01-27T09:27:42;3.00;99.90
41882;DHT22;27562;47.524;12.404;2024-01-27T09:30:08;3.10;99.90
41882;DHT22;27562;47.524;12.404;2024-01-27T09:32:34;3.10;99.90
41882;DHT22;27562;47.524;12.404;2024-01-27T09:35:00;3.10;99.90
41882;DHT22;27562;47.524;12.404;2024-01-27T09:37:25;3.10;99.90
41882;DHT22;27562;47.524;12.404;2024-01-27T09:39:51;3.10;99.90
41882;DHT22;27562;47.524;12.404;2024-01-27T09:42:20;3.20;99.90
41882;DHT22;27562;47.524;12.404;2024-01-27T09:44:48;3.20;99.90
41882;DHT22;27562;47.524;12.404;2024-01-27T09:47:17;3.20;99.90
41882;DHT22;27562;47.524;12.404;2024-01-27T09:49:45;3.20;99.90
41882;DHT22;27562;47.524;12.404;2024-01-27T09:52:12;3.30;99.90
41882;DHT22;27562;47.524;12.404;2024-01-27T09:54:40;3.30;99.90
41882;DHT22;27562;47.524;12.404;2024-01-27T09:57:06;3.40;99.90
41882;DHT22;27562;47.524;12.404;2024-01-27T09:59:33;3.40;99.90
41882;DHT22;27562;47.524;12.404;2024-01-27T10:02:00;3.50;99.90
41882;DHT22;27562;47.524;12.404;2024-01-27T10:04:28;3.50;99.90
41882;DHT22;27562;47.524;12.404;2024-01-27T10:06:57;3.60;99.90
41882;DHT22;27562;47.524;12.404;2024-01-27T10:09:23;3.70;99.90
41882;DHT22;27562;47.524;12.404;2024-01-27T10:11:49;3.80;99.90
41882;DHT22;27562;47.524;12.404;2024-01-27T10:14:15;3.90;99.90
41882;DHT22;27562;47.524;12.404;2024-01-27T10:16:44;4.00;99.90
41882;DHT22;27562;47.524;12.404;2024-01-27T10:19:18;4.00;99.90
41882;DHT22;27562;47.524;12.404;2024-01-27T10:21:47;4.10;99.90
41882;DHT22;27562;47.524;12.404;2024-01-27T10:24:14;4.20;99.90
41882;DHT22;27562;47.524;12.404;2024-01-27T10:26:40;4.20;99.90
41882;DHT22;27562;47.524;12.404;2024-01-27T10:29:05;4.20;99.90
41882;DHT22;27562;47.524;12.404;2024-01-27T10:31:34;4.30;99.90
41882;DHT22;27562;47.524;12.404;2024-01-27T10:34:00;4.40;99.90
41882;DHT22;27562;47.524;12.404;2024-01-27T10:36:43;4.50;99.90
41882;DHT22;27562;47.524;12.404;2024-01-27T10:39:23;4.50;99.90
41882;DHT22;27562;47.524;12.404;2024-01-27T10:41:50;4.60;99.90
41882;DHT22;27562;47.524;12.404;2024-01-27T10:44:17;4.60;99.90
41882;DHT22;27562;47.524;12.404;2024-01-27T10:46:44;4.60;99.90
41882;DHT22;27562;47.524;12.404;2024-01-27T10:49:16;4.70;99.90
41882;DHT22;27562;47.524;12.404;2024-01-27T10:52:03;4.70;99.90
41882;DHT22;27562;47.524;12.404;2024-01-27T10:54:33;4.70;99.90
41882;DHT22;27562;47.524;12.404;2024-01-27T10:56:59;4.70;99.90
41882;DHT22;27562;47.524;12.404;2024-01-27T10:59:27;4.70;99.90
41882;DHT22;27562;47.524;12.404;2024-01-27T11:01:56;4.70;99.90
41882;DHT22;27562;47.524;12.404;2024-01-27T11:04:22;4.70;99.90
41882;DHT22;27562;47.524;12.404;2024-01-27T11:06:48;4.70;99.90
41882;DHT22;27562;47.524;12.404;2024-01-27T11:09:15;4.70;99.90
41882;DHT22;27562;47.524;12.404;2024-01-27T11:11:44;4.70;99.90
41882;DHT22;27562;47.524;12.404;2024-01-27T11:14:11;4.70;99.90
41882;DHT22;27562;47.524;12.404;2024-01-27T11:16:37;4.70;99.90
41882;DHT22;27562;47.524;12.404;2024-01-27T11:19:10;4.70;99.90
41882;DHT22;27562;47.524;12.404;2024-01-27T11:21:37;4.80;99.90
41882;DHT22;27562;47.524;12.404;2024-01-27T11:24:15;4.80;99.90
41882;DHT22;27562;47.524;12.404;2024-01-27T11:26:41;4.90;99.90
41882;DHT22;27562;47.524;12.404;2024-01-27T11:29:07;4.90;99.90
41882;DHT22;27562;47.524;12.404;2024-01-27T11:31:45;5.00;99.90
41882;DHT22;27562;47.524;12.404;2024-01-27T11:34:11;5.10;99.90
41882;DHT22;27562;47.524;12.404;2024-01-27T11:36:43;5.20;99.90
41882;DHT22;27562;47.524;12.404;2024-01-27T11:39:29;5.20;99.90
41882;DHT22;27562;47.524;12.404;2024-01-27T11:42:09;5.30;99.90
41882;DHT22;27562;47.524;12.404;2024-01-27T11:44:38;5.40;99.90
41882;DHT22;27562;47.524;12.404;2024-01-27T11:47:05;5.40;99.90
41882;DHT22;27562;47.524;12.404;2024-01-27T11:49:33;5.50;99.90
41882;DHT22;27562;47.524;12.404;2024-01-27T11:51:59;5.60;99.90
41882;DHT22;27562;47.524;12.404;2024-01-27T11:54:25;5.70;99.90
41882;DHT22;27562;47.524;12.404;2024-01-27T11:56:51;5.70;99.90
41882;DHT22;27562;47.524;12.404;2024-01-27T11:59:16;5.80;99.90
41882;DHT22;27562;47.524;12.404;2024-01-27T12:01:42;5.80;99.90
41882;DHT22;27562;47.524;12.404;2024-01-27T12:04:09;5.90;99.90
41882;DHT22;27562;47.524;12.404;2024-01-27T12:06:35;5.90;99.90
41882;DHT22;27562;47.524;12.404;2024-01-27T12:09:01;5.90;99.90
41882;DHT22;27562;47.524;12.404;2024-01-27T12:11:27;5.90;99.90
41882;DHT22;27562;47.524;12.404;2024-01-27T12:13:53;5.90;99.90
41882;DHT22;27562;47.524;12.404;2024-01-27T12:16:22;6.00;99.90
41882;DHT22;27562;47.524;12.404;2024-01-27T12:18:52;6.00;99.90
41882;DHT22;27562;47.524;12.404;2024-01-27T12:21:19;6.10;99.90
41882;DHT22;27562;47.524;12.404;2024-01-27T12:23:51;6.00;99.90
41882;DHT22;27562;47.524;12.404;2024-01-27T12:26:17;6.10;99.90
41882;DHT22;27562;47.524;12.404;2024-01-27T12:28:46;6.10;99.90
41882;DHT22;27562;47.524;12.404;2024-01-27T12:31:13;6.10;99.90
41882;DHT22;27562;47.524;12.404;2024-01-27T12:33:40;6.10;99.90
41882;DHT22;27562;47.524;12.404;2024-01-27T12:36:08;6.10;99.90
41882;DHT22;27562;47.524;12.404;2024-01-27T12:38:33;6.10;99.90
41882;DHT22;27562;47.524;12.404;2024-01-27T12:40:59;6.10;99.90
41882;DHT22;27562;47.524;12.404;2024-01-27T12:43:24;6.20;99.90
41882;DHT22;27562;47.524;12.404;2024-01-27T12:45:50;6.30;99.90
41882;DHT22;27562;47.524;12.404;2024-01-27T12:48:16;6.40;99.90
41882;DHT22;27562;47.524;12.404;2024-01-27T12:50:42;6.50;99.90
41882;DHT22;27562;47.524;12.404;2024-01-27T12:53:07;6.50;99.90
41882;DHT22;27562;47.524;12.404;2024-01-27T12:55:34;6.60;99.90
41882;DHT22;27562;47.524;12.404;2024-01-27T12:58:00;6.60;99.90
41882;DHT22;27562;47.524;12.404;2024-01-27T13:00:25;6.60;99.90
41882;DHT22;27562;47.524;12.404;2024-01-27T13:02:51;6.70;99.90
41882;DHT22;27562;47.524;12.404;2024-01-27T13:05:16;6.80;99.90
41882;DHT22;27562;47.524;12.404;2024-01-27T13:07:42;6.90;99.90
41882;DHT22;27562;47.524;12.404;2024-01-27T13:10:10;7.00;99.90
41882;DHT22;27562;47.524;12.404;2024-01-27T13:12:36;7.00;99.90
41882;DHT22;27562;47.524;12.404;2024-01-27T13:15:01;7.10;99.90
41882;DHT22;27562;47.524;12.404;2024-01-27T13:17:27;7.20;99.90
41882;DHT22;27562;47.524;12.404;2024-01-27T13:19:53;7.20;99.90
41882;DHT22;27562;47.524;12.404;2024-01-27T13:22:20;7.30;99.90
41882;DHT22;27562;47.524;12.404;2024-01-27T13:24:49;7.40;99.90
41882;DHT22;27562;47.524;12.404;2024-01-27T13:27:15;7.40;99.90
41882;DHT22;27562;47.524;12.404;2024-01-27T13:29:40;7.40;99.90
41882;DHT22;27562;47.524;12.404;2024-01-27T13:32:07;7.50;99.90
41882;DHT22;27562;47.524;12.404;2024-01-27T13:34:32;7.60;99.90
41882;DHT22;27562;47.524;12.404;2024-01-27T13:36:58;7.60;99.90
41882;DHT22;27562;47.524;12.404;2024-01-27T13:39:25;7.70;99.90
41882;DHT22;27562;47.524;12.404;2024-01-27T13:41:51;7.70;99.90
41882;DHT22;27562;47.524;12.404;2024-01-27T13:44:16;7.80;99.90
41882;DHT22;27562;47.524;12.404;2024-01-27T13:46:42;7.80;99.90
41882;DHT22;27562;47.524;12.404;2024-01-27T13:49:08;7.80;99.90
41882;DHT22;27562;47.524;12.404;2024-01-27T13:51:33;7.70;99.90
41882;DHT22;27562;47.524;12.404;2024-01-27T13:53:59;7.70;99.90
41882;DHT22;27562;47.524;12.404;2024-01-27T13:56:25;7.60;99.90
41882;DHT22;27562;47.524;12.404;2024-01-27T13:58:51;7.60;99.90
41882;DHT22;27562;47.524;12.404;2024-01-27T14:01:17;7.40;99.90
41882;DHT22;27562;47.524;12.404;2024-01-27T14:03:43;7.30;99.90
41882;DHT22;27562;47.524;12.404;2024-01-27T14:06:08;7.30;99.90
41882;DHT22;27562;47.524;12.404;2024-01-27T14:08:38;7.30;99.90
41882;DHT22;27562;47.524;12.404;2024-01-27T14:11:04;7.20;99.90
41882;DHT22;27562;47.524;12.404;2024-01-27T14:13:30;7.10;99.90
41882;DHT22;27562;47.524;12.404;2024-01-27T14:15:55;7.10;99.90
41882;DHT22;27562;47.524;12.404;2024-01-27T14:18:21;7.00;99.90
41882;DHT22;27562;47.524;12.404;2024-01-27T14:20:47;7.00;99.90
41882;DHT22;27562;47.524;12.404;2024-01-27T14:23:14;6.90;99.90
41882;DHT22;27562;47.524;12.404;2024-01-27T14:25:40;6.80;99.90
41882;DHT22;27562;47.524;12.404;2024-01-27T14:28:07;6.60;99.90
41882;DHT22;27562;47.524;12.404;2024-01-27T14:30:33;6.50;99.90
41882;DHT22;27562;47.524;12.404;2024-01-27T14:32:59;6.40;99.90
41882;DHT22;27562;47.524;12.404;2024-01-27T14:35:25;6.30;99.90
41882;DHT22;27562;47.524;12.404;2024-01-27T14:37:52;6.20;99.90
41882;DHT22;27562;47.524;12.404;2024-01-27T14:40:19;6.10;99.90
41882;DHT22;27562;47.524;12.404;2024-01-27T14:42:46;6.10;99.90
41882;DHT22;27562;47.524;12.404;2024-01-27T14:45:12;6.00;99.90
41882;DHT22;27562;47.524;12.404;2024-01-27T14:47:38;5.90;99.90
41882;DHT22;27562;47.524;12.404;2024-01-27T14:50:04;5.90;99.90
41882;DHT22;27562;47.524;12.404;2024-01-27T14:52:32;5.80;99.90
41882;DHT22;27562;47.524;12.404;2024-01-27T14:54:58;5.80;99.90
41882;DHT22;27562;47.524;12.404;2024-01-27T14:57:23;5.70;99.90
41882;DHT22;27562;47.524;12.404;2024-01-27T14:59:50;5.70;99.90
41882;DHT22;27562;47.524;12.404;2024-01-27T15:02:15;5.60;99.90
41882;DHT22;27562;47.524;12.404;2024-01-27T15:04:41;5.60;99.90
41882;DHT22;27562;47.524;12.404;2024-01-27T15:07:07;5.50;99.90
41882;DHT22;27562;47.524;12.404;2024-01-27T15:09:35;5.50;99.90
41882;DHT22;27562;47.524;12.404;2024-01-27T15:12:00;5.40;99.90
41882;DHT22;27562;47.524;12.404;2024-01-27T15:14:26;5.40;99.90
41882;DHT22;27562;47.524;12.404;2024-01-27T15:16:52;5.30;99.90
41882;DHT22;27562;47.524;12.404;2024-01-27T15:19:18;5.20;99.90
41882;DHT22;27562;47.524;12.404;2024-01-27T15:21:44;5.20;99.90
41882;DHT22;27562;47.524;12.404;2024-01-27T15:24:09;5.10;99.90
41882;DHT22;27562;47.524;12.404;2024-01-27T15:26:35;5.10;99.90